createdAt,value
2024-04-11T00:00:25.188Z,101991.00
2024-04-11T00:02:53.378Z,101977.84
2024-04-11T00:05:21.542Z,101989.13
2024-04-11T00:07:48.383Z,101985.00
2024-04-11T00:10:15.240Z,101982.25
2024-04-11T00:12:42.097Z,101977.00
2024-04-11T00:15:09.349Z,101975.28
2024-04-11T00:17:36.299Z,101985.72
2024-04-11T00:20:05.079Z,101973.31
2024-04-11T00:22:32.246Z,101966.63
2024-04-11T00:24:59.165Z,101960.50
2024-04-11T00:27:26.237Z,101959.00
2024-04-11T00:29:53.139Z,101957.41
2024-04-11T00:32:20.076Z,101956.81
2024-04-11T00:34:47.050Z,101950.31
2024-04-11T00:37:14.203Z,101942.03
2024-04-11T00:39:40.886Z,101938.75
2024-04-11T00:42:08.667Z,101947.16
2024-04-11T00:44:38.686Z,101940.41
2024-04-11T00:47:10.708Z,101938.06
2024-04-11T00:49:39.536Z,101944.94
2024-04-11T00:52:08.424Z,101945.19
2024-04-11T00:54:36.972Z,101943.88
2024-04-11T00:57:08.908Z,101945.16
2024-04-11T00:59:41.939Z,101955.72
2024-04-11T01:02:13.418Z,101953.53
2024-04-11T01:04:40.693Z,101948.81
2024-04-11T01:07:09.624Z,101961.69
2024-04-11T01:09:46.042Z,101952.75
2024-04-11T01:12:14.870Z,101961.28
2024-04-11T01:14:45.461Z,101957.22
2024-04-11T01:17:17.367Z,101965.03
2024-04-11T01:19:51.225Z,101969.81
2024-04-11T01:22:19.982Z,101971.44
2024-04-11T01:24:48.164Z,101964.06
2024-04-11T01:27:18.416Z,101966.81
2024-04-11T01:29:45.433Z,101962.44
2024-04-11T01:32:12.371Z,101962.53
2024-04-11T01:34:40.068Z,101951.63
2024-04-11T01:37:07.183Z,101947.03
2024-04-11T01:39:33.964Z,101940.03
2024-04-11T01:42:00.989Z,101920.25
2024-04-11T01:44:29.840Z,101916.50
2024-04-11T01:46:57.171Z,101920.50
2024-04-11T01:49:23.943Z,101917.81
2024-04-11T01:51:50.792Z,101924.78
2024-04-11T01:54:17.686Z,101930.59
2024-04-11T01:56:44.427Z,101928.28
2024-04-11T01:59:11.196Z,101923.59
2024-04-11T02:01:39.091Z,101927.75
2024-04-11T02:04:07.447Z,101929.06
2024-04-11T02:06:38.414Z,101946.34
2024-04-11T02:09:16.948Z,101946.44
2024-04-11T02:11:48.609Z,101949.94
2024-04-11T02:14:15.806Z,101949.56
2024-04-11T02:16:42.568Z,101949.91
2024-04-11T02:19:09.489Z,101947.66
2024-04-11T02:21:39.413Z,101951.25
2024-04-11T02:24:08.067Z,101948.81
2024-04-11T02:26:36.109Z,101939.44
2024-04-11T02:29:03.851Z,101937.59
2024-04-11T02:31:30.732Z,101941.03
2024-04-11T02:34:00.768Z,101937.38
2024-04-11T02:36:34.138Z,101937.78
2024-04-11T02:39:01.663Z,101933.09
2024-04-11T02:41:29.325Z,101925.63
2024-04-11T02:43:56.642Z,101933.00
2024-04-11T02:46:26.393Z,101933.84
2024-04-11T02:48:54.853Z,101942.31
2024-04-11T02:51:24.290Z,101932.16
2024-04-11T02:53:51.361Z,101944.75
2024-04-11T02:56:18.353Z,101937.81
2024-04-11T02:58:45.137Z,101942.06
2024-04-11T03:01:15.449Z,101931.41
2024-04-11T03:03:42.787Z,101929.50
2024-04-11T03:06:11.379Z,101933.44
2024-04-11T03:08:38.258Z,101933.22
2024-04-11T03:11:05.052Z,101931.41
2024-04-11T03:13:31.791Z,101932.56
2024-04-11T03:15:59.393Z,101930.84
2024-04-11T03:18:26.347Z,101938.41
2024-04-11T03:20:57.857Z,101929.63
2024-04-11T03:23:25.913Z,101923.91
2024-04-11T03:25:53.095Z,101918.84
2024-04-11T03:28:20.999Z,101908.06
2024-04-11T03:30:58.866Z,101897.22
2024-04-11T03:33:27.528Z,101894.06
2024-04-11T03:35:59.452Z,101894.44
2024-04-11T03:38:26.993Z,101884.09
2024-04-11T03:41:09.148Z,101887.69
2024-04-11T03:43:36.202Z,101886.47
2024-04-11T03:46:22.719Z,101897.97
2024-04-11T03:48:57.506Z,101903.84
2024-04-11T03:51:31.023Z,101898.63
2024-04-11T03:54:00.136Z,101892.28
2024-04-11T03:56:29.238Z,101898.16
2024-04-11T03:59:00.056Z,101899.44
2024-04-11T04:01:28.742Z,101906.81
2024-04-11T04:04:06.136Z,101904.25
2024-04-11T04:06:35.424Z,101898.53
2024-04-11T04:09:09.094Z,101890.84
2024-04-11T04:11:39.504Z,101891.34
2024-04-11T04:14:15.025Z,101888.63
2024-04-11T04:16:43.599Z,101880.00
2024-04-11T04:19:11.013Z,101880.75
2024-04-11T04:21:37.825Z,101870.84
2024-04-11T04:24:07.834Z,101870.41
2024-04-11T04:26:35.531Z,101872.88
2024-04-11T04:29:02.324Z,101862.19
2024-04-11T04:31:32.150Z,101871.78
2024-04-11T04:34:01.463Z,101861.66
2024-04-11T04:36:34.385Z,101857.94
2024-04-11T04:39:06.052Z,101854.91
2024-04-11T04:41:33.932Z,101847.59
2024-04-11T04:44:03.554Z,101853.00
2024-04-11T04:46:31.981Z,101855.31
2024-04-11T04:49:01.683Z,101858.28
2024-04-11T04:51:30.150Z,101848.47
2024-04-11T04:53:58.391Z,101852.38
2024-04-11T04:56:30.061Z,101858.81
2024-04-11T04:58:57.468Z,101858.22
2024-04-11T05:01:25.306Z,101855.56
2024-04-11T05:03:52.765Z,101845.44
2024-04-11T05:06:19.994Z,101847.00
2024-04-11T05:08:54.742Z,101854.50
2024-04-11T05:11:23.635Z,101849.13
2024-04-11T05:13:51.846Z,101849.25
2024-04-11T05:16:22.533Z,101846.75
2024-04-11T05:18:51.629Z,101847.97
2024-04-11T05:21:25.736Z,101858.66
2024-04-11T05:23:55.432Z,101852.72
2024-04-11T05:26:26.398Z,101856.41
2024-04-11T05:28:55.399Z,101857.00
2024-04-11T05:31:29.136Z,101858.13
2024-04-11T05:34:01.244Z,101860.03
2024-04-11T05:36:30.396Z,101858.97
2024-04-11T05:38:58.671Z,101855.34
2024-04-11T05:41:26.965Z,101861.50
2024-04-11T05:43:55.938Z,101872.09
2024-04-11T05:46:23.889Z,101870.47
2024-04-11T05:48:52.139Z,101869.16
2024-04-11T05:51:20.229Z,101873.72
2024-04-11T05:53:47.415Z,101870.72
2024-04-11T05:56:16.906Z,101873.38
2024-04-11T05:58:44.570Z,101872.66
2024-04-11T06:01:17.324Z,101872.75
2024-04-11T06:03:51.710Z,101870.97
2024-04-11T06:06:21.257Z,101869.13
2024-04-11T06:08:49.224Z,101875.31
2024-04-11T06:11:19.487Z,101869.59
2024-04-11T06:13:48.486Z,101861.91
2024-04-11T06:16:16.377Z,101858.50
2024-04-11T06:18:45.357Z,101863.72
2024-04-11T06:21:19.911Z,101855.34
2024-04-11T06:23:46.983Z,101867.56
2024-04-11T06:26:15.918Z,101860.19
2024-04-11T06:28:46.523Z,101872.81
2024-04-11T06:31:16.089Z,101872.94
2024-04-11T06:33:43.293Z,101867.69
2024-04-11T06:36:12.371Z,101866.88
2024-04-11T06:38:39.697Z,101869.16
2024-04-11T06:41:09.787Z,101879.47
2024-04-11T06:43:39.538Z,101869.03
2024-04-11T06:46:08.232Z,101877.78
2024-04-11T06:48:36.742Z,101872.75
2024-04-11T06:51:08.637Z,101872.31
2024-04-11T06:53:35.766Z,101873.03
2024-04-11T06:56:09.020Z,101870.69
2024-04-11T06:58:37.795Z,101876.22
2024-04-11T07:01:05.916Z,101881.16
2024-04-11T07:03:33.088Z,101882.28
2024-04-11T07:06:11.599Z,101894.19
2024-04-11T07:08:44.416Z,101897.66
2024-04-11T07:11:20.610Z,101895.06
2024-04-11T07:13:56.026Z,101901.31
2024-04-11T07:16:27.641Z,101901.75
2024-04-11T07:18:57.390Z,101909.41
2024-04-11T07:21:29.411Z,101910.63
2024-04-11T07:23:59.457Z,101912.88
2024-04-11T07:26:31.646Z,101922.22
2024-04-11T07:29:05.102Z,101918.41
2024-04-11T07:31:34.518Z,101913.31
2024-04-11T07:34:04.741Z,101931.38
2024-04-11T07:36:34.111Z,101932.41
2024-04-11T07:39:02.401Z,101944.69
2024-04-11T07:41:34.280Z,101947.25
2024-04-11T07:44:01.831Z,101957.72
2024-04-11T07:46:42.885Z,101959.78
2024-04-11T07:49:14.869Z,101970.91
2024-04-11T07:51:43.189Z,101970.59
2024-04-11T07:54:20.573Z,101979.88
2024-04-11T07:56:52.539Z,101980.66
2024-04-11T07:59:19.226Z,101985.53
2024-04-11T08:01:46.011Z,101989.56
2024-04-11T08:04:12.828Z,101991.75
2024-04-11T08:06:40.483Z,101987.03
2024-04-11T08:09:08.207Z,101986.69
2024-04-11T08:11:38.202Z,101986.94
2024-04-11T08:14:07.569Z,101984.38
2024-04-11T08:16:34.889Z,101995.00
2024-04-11T08:19:03.938Z,101990.22
2024-04-11T08:21:34.615Z,101995.09
2024-04-11T08:24:01.974Z,102003.28
2024-04-11T08:26:30.549Z,101988.31
2024-04-11T08:28:57.393Z,101993.66
2024-04-11T08:31:31.622Z,102003.09
2024-04-11T08:33:59.634Z,102000.28
2024-04-11T08:36:27.794Z,101997.34
2024-04-11T08:38:56.670Z,102003.97
2024-04-11T08:41:23.480Z,102005.16
2024-04-11T08:43:51.947Z,102007.09
2024-04-11T08:46:18.805Z,102010.19
2024-04-11T08:48:45.888Z,102003.69
2024-04-11T08:51:21.133Z,102020.38
2024-04-11T08:54:00.201Z,102015.00
2024-04-11T08:56:30.748Z,102018.41
2024-04-11T08:58:57.582Z,102027.38
2024-04-11T09:01:25.028Z,102028.97
2024-04-11T09:03:53.981Z,102029.72
2024-04-11T09:06:25.734Z,102030.44
2024-04-11T09:08:56.942Z,102027.63
2024-04-11T09:11:28.153Z,102038.16
2024-04-11T09:13:59.577Z,102035.06
2024-04-11T09:16:29.809Z,102028.03
2024-04-11T09:19:12.724Z,102035.44
2024-04-11T09:21:47.146Z,102042.31
2024-04-11T09:24:20.317Z,102041.50
2024-04-11T09:26:48.538Z,102047.22
2024-04-11T09:29:21.259Z,102051.16
2024-04-11T09:31:50.639Z,102044.94
2024-04-11T09:34:22.117Z,102053.03
2024-04-11T09:36:51.410Z,102054.03
2024-04-11T09:39:44.809Z,102053.31
2024-04-11T09:42:21.745Z,102056.75
2024-04-11T09:44:54.652Z,102059.88
2024-04-11T09:47:36.174Z,102061.69
2024-04-11T09:50:07.457Z,102058.78
2024-04-11T09:52:42.781Z,102054.47
2024-04-11T09:55:10.443Z,102066.19
2024-04-11T09:57:39.867Z,102074.34
2024-04-11T10:00:23.916Z,102072.59
2024-04-11T10:02:56.504Z,102067.19
2024-04-11T10:05:26.814Z,102068.78
2024-04-11T10:07:59.304Z,102075.63
2024-04-11T10:10:29.113Z,102074.63
2024-04-11T10:13:04.802Z,102075.00
2024-04-11T10:15:35.437Z,102073.56
2024-04-11T10:18:10.994Z,102072.31
2024-04-11T10:21:00.609Z,102077.22
2024-04-11T10:23:30.359Z,102076.53
2024-04-11T10:25:57.582Z,102090.00
2024-04-11T10:28:39.809Z,102093.06
2024-04-11T10:31:12.748Z,102098.97
2024-04-11T10:33:54.806Z,102097.19
2024-04-11T10:36:22.908Z,102103.91
2024-04-11T10:38:59.253Z,102096.63
2024-04-11T10:41:27.796Z,102091.53
2024-04-11T10:43:56.952Z,102097.03
2024-04-11T10:46:25.342Z,102091.25
2024-04-11T10:48:56.364Z,102088.41
2024-04-11T10:51:29.145Z,102093.38
2024-04-11T10:54:10.763Z,102095.84
2024-04-11T10:56:47.899Z,102095.34
2024-04-11T10:59:24.223Z,102100.19
2024-04-11T11:02:06.208Z,102099.50
2024-04-11T11:04:35.095Z,102101.44
2024-04-11T11:07:12.021Z,102101.78
2024-04-11T11:09:46.798Z,102110.56
2024-04-11T11:12:17.778Z,102108.34
2024-04-11T11:14:44.933Z,102104.34
2024-04-11T11:17:19.358Z,102113.00
2024-04-11T11:19:51.556Z,102110.72
2024-04-11T11:22:31.322Z,102107.94
2024-04-11T11:25:02.238Z,102110.16
2024-04-11T11:27:34.841Z,102101.41
2024-04-11T11:30:07.284Z,102101.41
2024-04-11T11:32:37.522Z,102108.28
2024-04-11T11:35:10.596Z,102102.31
2024-04-11T11:37:40.110Z,102103.59
2024-04-11T11:40:27.339Z,102108.72
2024-04-11T11:42:54.244Z,102103.91
2024-04-11T11:45:30.204Z,102110.09
2024-04-11T11:48:14.238Z,102108.00
2024-04-11T11:50:41.537Z,102111.41
2024-04-11T11:53:27.017Z,102109.09
2024-04-11T11:56:04.699Z,102112.88
2024-04-11T11:58:37.658Z,102097.91
2024-04-11T12:01:20.976Z,102098.00
2024-04-11T12:03:49.186Z,102100.66
2024-04-11T12:06:16.105Z,102098.72
2024-04-11T12:08:44.899Z,102097.31
2024-04-11T12:11:11.917Z,102092.00
2024-04-11T12:13:46.493Z,102096.31
2024-04-11T12:16:19.440Z,102085.94
2024-04-11T12:18:49.794Z,102109.41
2024-04-11T12:21:27.605Z,102107.41
2024-04-11T12:23:56.386Z,102103.88
2024-04-11T12:26:23.451Z,102108.50
2024-04-11T12:28:52.485Z,102102.72
2024-04-11T12:31:23.353Z,102092.41
2024-04-11T12:39:14.085Z,102095.38
2024-04-11T12:41:42.126Z,102086.72
2024-04-11T12:44:12.814Z,102095.78
2024-04-11T12:46:50.422Z,102095.16
2024-04-11T12:49:21.596Z,102094.41
2024-04-11T12:51:48.322Z,102093.50
2024-04-11T12:54:17.251Z,102104.22
2024-04-11T12:56:46.577Z,102102.41
2024-04-11T12:59:29.412Z,102103.94
2024-04-11T13:02:00.444Z,102099.94
2024-04-11T13:04:33.731Z,102103.53
2024-04-11T13:07:11.717Z,102102.69
2024-04-11T13:09:56.556Z,102099.16
2024-04-11T13:12:28.147Z,102096.03
2024-04-11T13:15:11.348Z,102108.47
2024-04-11T13:17:44.686Z,102121.75
2024-04-11T13:20:15.068Z,102119.34
2024-04-11T13:22:46.025Z,102118.66
2024-04-11T13:25:22.678Z,102117.78
2024-04-11T13:27:54.952Z,102120.31
2024-04-11T13:30:22.455Z,102118.41
2024-04-11T13:32:57.562Z,102117.94
2024-04-11T13:35:38.324Z,102117.06
2024-04-11T13:38:13.988Z,102113.09
2024-04-11T13:41:12.814Z,102117.72
2024-04-11T13:43:44.979Z,102102.50
2024-04-11T13:46:13.033Z,102103.88
2024-04-11T13:48:51.868Z,102112.63
2024-04-11T13:51:31.807Z,102116.66
2024-04-11T13:54:04.540Z,102110.69
2024-04-11T13:56:31.924Z,102117.63
2024-04-11T13:59:09.311Z,102109.63
2024-04-11T14:01:51.918Z,102118.00
2024-04-11T14:04:19.650Z,102127.97
2024-04-11T14:06:52.342Z,102119.97
2024-04-11T14:09:20.740Z,102121.69
2024-04-11T14:11:48.954Z,102117.59
2024-04-11T14:14:22.298Z,102120.59
2024-04-11T14:16:53.718Z,102114.34
2024-04-11T14:19:36.989Z,102111.09
2024-04-11T14:22:23.276Z,102108.81
2024-04-11T14:25:09.193Z,102118.75
2024-04-11T14:27:39.694Z,102117.72
2024-04-11T14:30:07.313Z,102118.44
2024-04-11T14:32:52.711Z,102128.25
2024-04-11T14:35:26.957Z,102120.34
2024-04-11T14:37:57.475Z,102129.53
2024-04-11T14:40:24.404Z,102122.94
2024-04-11T14:42:54.525Z,102133.16
2024-04-11T14:45:23.973Z,102137.06
2024-04-11T14:47:52.626Z,102138.47
2024-04-11T14:50:20.538Z,102134.22
2024-04-11T14:52:53.167Z,102127.50
2024-04-11T14:55:22.129Z,102127.97
2024-04-11T14:57:49.612Z,102128.72
2024-04-11T15:00:35.229Z,102129.66
2024-04-11T15:03:02.506Z,102120.25
2024-04-11T15:05:35.381Z,102129.97
2024-04-11T15:08:05.052Z,102118.59
2024-04-11T15:10:43.283Z,102119.56
2024-04-11T15:13:10.950Z,102113.84
2024-04-11T15:15:57.651Z,102123.59
2024-04-11T15:18:29.150Z,102117.47
2024-04-11T15:21:12.269Z,102106.78
2024-04-11T15:23:44.073Z,102110.63
2024-04-11T15:26:15.070Z,102105.00
2024-04-11T15:28:48.876Z,102093.50
2024-04-11T15:31:31.245Z,102093.72
2024-04-11T15:33:59.178Z,102086.84
2024-04-11T15:36:45.088Z,102088.53
2024-04-11T15:39:17.560Z,102089.72
2024-04-11T15:41:52.203Z,102094.28
2024-04-11T15:44:19.541Z,102107.44
2024-04-11T15:46:50.840Z,102102.69
2024-04-11T15:49:19.909Z,102111.22
2024-04-11T15:51:52.444Z,102107.66
2024-04-11T15:54:31.618Z,102100.34
2024-04-11T15:56:58.447Z,102102.91
2024-04-11T15:59:28.531Z,102102.41
2024-04-11T16:01:59.034Z,102105.78
2024-04-11T16:04:25.952Z,102109.19
2024-04-11T16:06:59.816Z,102104.03
2024-04-11T16:09:38.446Z,102103.41
2024-04-11T16:12:11.180Z,102114.75
2024-04-11T16:14:44.429Z,102107.59
2024-04-11T16:17:14.667Z,102111.41
2024-04-11T16:19:42.473Z,102110.72
2024-04-11T16:22:12.617Z,102115.09
2024-04-11T16:24:53.711Z,102109.91
2024-04-11T16:27:35.428Z,102113.69
2024-04-11T16:30:12.329Z,102110.50
2024-04-11T16:32:42.647Z,102106.47
2024-04-11T16:35:09.943Z,102105.41
2024-04-11T16:37:37.047Z,102108.84
2024-04-11T16:40:05.228Z,102112.84
2024-04-11T16:42:35.632Z,102114.41
2024-04-11T16:45:06.607Z,102112.00
2024-04-11T16:47:37.604Z,102119.97
2024-04-11T16:50:05.492Z,102112.84
2024-04-11T16:52:33.206Z,102118.78
2024-04-11T16:55:24.423Z,102119.47
2024-04-11T16:57:52.731Z,102121.22
2024-04-11T17:00:28.626Z,102124.78
2024-04-11T17:03:01.341Z,102130.47
2024-04-11T17:05:29.738Z,102137.38
2024-04-11T17:07:57.403Z,102137.16
2024-04-11T17:10:34.849Z,102133.91
2024-04-11T17:13:02.377Z,102140.41
2024-04-11T17:15:31.634Z,102148.94
2024-04-11T17:18:07.304Z,102150.34
2024-04-11T17:20:35.185Z,102153.03
2024-04-11T17:23:01.864Z,102143.13
2024-04-11T17:25:40.400Z,102149.34
2024-04-11T17:28:20.975Z,102150.38
2024-04-11T17:30:57.290Z,102150.19
2024-04-11T17:33:36.920Z,102145.78
2024-04-11T17:36:25.110Z,102149.59
2024-04-11T17:39:23.370Z,102151.47
2024-04-11T17:41:59.886Z,102154.94
2024-04-11T17:44:45.994Z,102157.09
2024-04-11T17:47:21.993Z,102156.19
2024-04-11T17:50:00.040Z,102170.72
2024-04-11T17:52:46.069Z,102168.97
2024-04-11T17:55:25.840Z,102180.84
2024-04-11T17:57:53.157Z,102179.84
2024-04-11T18:00:27.200Z,102188.72
2024-04-11T18:02:55.051Z,102188.31
2024-04-11T18:05:22.836Z,102187.03
2024-04-11T18:07:53.463Z,102183.84
2024-04-11T18:10:26.250Z,102184.88
2024-04-11T18:12:54.492Z,102190.34
2024-04-11T18:15:21.322Z,102197.22
2024-04-11T18:17:55.421Z,102194.22
2024-04-11T18:20:28.453Z,102196.66
2024-04-11T18:22:55.243Z,102204.41
2024-04-11T18:25:30.367Z,102197.72
2024-04-11T18:28:12.787Z,102205.38
2024-04-11T18:30:55.833Z,102202.59
2024-04-11T18:33:24.421Z,102200.88
2024-04-11T18:35:55.881Z,102198.81
2024-04-11T18:38:28.762Z,102202.00
2024-04-11T18:40:55.971Z,102204.97
2024-04-11T18:43:23.940Z,102195.03
2024-04-11T18:45:55.938Z,102202.56
2024-04-11T18:48:39.222Z,102196.91
2024-04-11T18:51:07.047Z,102211.03
2024-04-11T18:53:36.543Z,102207.22
2024-04-11T18:56:10.496Z,102206.72
2024-04-11T18:58:40.726Z,102200.19
2024-04-11T19:01:16.564Z,102192.53
2024-04-11T19:03:43.647Z,102185.59
2024-04-11T19:06:17.886Z,102195.81
2024-04-11T19:08:49.437Z,102193.28
2024-04-11T19:11:21.668Z,102192.81
2024-04-11T19:13:56.202Z,102196.53
2024-04-11T19:16:25.800Z,102199.66
2024-04-11T19:18:57.907Z,102206.16
2024-04-11T19:21:25.152Z,102213.31
2024-04-11T19:24:07.742Z,102209.09
2024-04-11T19:26:39.500Z,102220.72
2024-04-11T19:29:08.960Z,102221.53
2024-04-11T19:31:50.195Z,102217.81
2024-04-11T19:34:21.280Z,102218.47
2024-04-11T19:36:49.548Z,102217.66
2024-04-11T19:39:20.610Z,102219.31
2024-04-11T19:41:50.648Z,102220.13
2024-04-11T19:44:19.103Z,102212.56
2024-04-11T19:46:45.892Z,102225.34
2024-04-11T19:49:25.496Z,102231.47
2024-04-11T19:51:58.855Z,102229.63
2024-04-11T19:54:26.656Z,102227.47
2024-04-11T19:57:03.527Z,102230.94
2024-04-11T19:59:33.589Z,102238.28
2024-04-11T20:02:09.580Z,102229.78
2024-04-11T20:04:43.078Z,102235.97
2024-04-11T20:07:10.722Z,102232.88
2024-04-11T20:09:39.461Z,102238.88
2024-04-11T20:12:09.059Z,102233.72
2024-04-11T20:14:39.853Z,102238.59
2024-04-11T20:17:27.736Z,102241.91
2024-04-11T20:20:00.595Z,102241.50
2024-04-11T20:22:33.491Z,102242.34
2024-04-11T20:25:00.406Z,102234.44
2024-04-11T20:27:35.741Z,102237.16
2024-04-11T20:30:15.625Z,102229.91
2024-04-11T20:32:45.579Z,102222.31
2024-04-11T20:35:42.440Z,102234.34
2024-04-11T20:38:22.375Z,102230.94
2024-04-11T20:41:04.658Z,102234.28
2024-04-11T20:43:58.665Z,102232.47
2024-04-11T20:46:31.232Z,102224.31
2024-04-11T20:49:07.302Z,102229.34
2024-04-11T20:51:52.855Z,102221.16
2024-04-11T20:54:38.664Z,102220.38
2024-04-11T20:57:24.070Z,102226.59
2024-04-11T21:00:09.522Z,102216.16
2024-04-11T21:02:55.076Z,102218.00
2024-04-11T21:05:41.990Z,102220.50
2024-04-11T21:08:28.066Z,102225.47
2024-04-11T21:11:15.070Z,102225.88
2024-04-11T21:14:00.243Z,102228.75
2024-04-11T21:16:46.106Z,102226.91
2024-04-11T21:19:31.599Z,102227.66
2024-04-11T21:22:17.055Z,102235.22
2024-04-11T21:25:07.098Z,102229.72
2024-04-11T21:27:52.084Z,102234.22
2024-04-11T21:30:37.556Z,102235.34
2024-04-11T21:33:23.705Z,102230.13
2024-04-11T21:35:54.666Z,102223.09
2024-04-11T21:38:24.409Z,102211.28
2024-04-11T21:40:51.220Z,102215.81
2024-04-11T21:43:21.893Z,102219.97
2024-04-11T21:45:58.951Z,102218.41
2024-04-11T21:48:30.390Z,102213.16
2024-04-11T21:50:57.194Z,102220.50
2024-04-11T21:53:23.920Z,102209.00
2024-04-11T21:55:50.962Z,102212.22
2024-04-11T21:58:20.166Z,102214.09
2024-04-11T22:01:02.695Z,102212.56
2024-04-11T22:03:30.687Z,102212.34
2024-04-11T22:05:57.715Z,102203.09
2024-04-11T22:08:26.297Z,102209.72
2024-04-11T22:10:54.390Z,102216.69
2024-04-11T22:13:23.230Z,102216.28
2024-04-11T22:15:54.106Z,102216.84
2024-04-11T22:18:31.865Z,102207.84
2024-04-11T22:21:16.061Z,102209.47
2024-04-11T22:23:46.555Z,102217.47
2024-04-11T22:26:19.269Z,102213.91
2024-04-11T22:28:49.642Z,102215.13
2024-04-11T22:31:16.530Z,102216.44
2024-04-11T22:33:44.962Z,102220.03
2024-04-11T22:36:29.146Z,102222.66
2024-04-11T22:39:01.883Z,102227.72
2024-04-11T22:41:31.792Z,102226.25
2024-04-11T22:43:59.763Z,102232.03
2024-04-11T22:46:38.333Z,102234.53
2024-04-11T22:49:22.611Z,102225.91
2024-04-11T22:51:55.765Z,102224.91
2024-04-11T22:54:23.809Z,102221.16
2024-04-11T22:56:52.061Z,102209.09
2024-04-11T22:59:35.875Z,102207.41
2024-04-11T23:02:14.777Z,102205.44
2024-04-11T23:05:07.330Z,102207.97
2024-04-11T23:07:34.763Z,102199.94
2024-04-11T23:10:11.106Z,102198.53
2024-04-11T23:12:38.569Z,102201.06
2024-04-11T23:15:12.575Z,102196.22
2024-04-11T23:17:56.319Z,102196.44
2024-04-11T23:20:30.082Z,102198.50
2024-04-11T23:23:17.977Z,102190.97
2024-04-11T23:25:51.411Z,102195.81
2024-04-11T23:28:27.923Z,102193.22
2024-04-11T23:30:57.585Z,102199.34
2024-04-11T23:33:30.315Z,102191.66
2024-04-11T23:36:06.117Z,102187.44
2024-04-11T23:38:36.089Z,102190.38
2024-04-11T23:41:07.785Z,102187.38
2024-04-11T23:43:52.613Z,102187.19
2024-04-11T23:46:32.010Z,102184.78
2024-04-11T23:49:07.564Z,102186.56
2024-04-11T23:51:47.390Z,102182.53
2024-04-11T23:54:20.018Z,102184.59
2024-04-11T23:56:48.994Z,102189.53
2024-04-11T23:59:17.035Z,102196.34
